createdAt,value
2018-04-28T00:02:16.418Z,16.70
2018-04-28T00:04:46.913Z,16.60
2018-04-28T00:07:17.678Z,16.70
2018-04-28T00:09:48.998Z,16.70
2018-04-28T00:12:20.176Z,16.60
2018-04-28T00:14:51.031Z,16.70
2018-04-28T00:17:22.143Z,16.70
2018-04-28T00:19:57.053Z,16.60
2018-04-28T00:22:29.909Z,16.60
2018-04-28T00:25:09.820Z,16.60
2018-04-28T00:41:16.705Z,16.80
2018-04-28T00:43:47.119Z,16.70
2018-04-28T00:46:23.740Z,16.70
2018-04-28T00:49:11.514Z,16.70
2018-04-28T00:51:42.653Z,16.70
2018-04-28T00:54:46.246Z,16.70
2018-04-28T01:01:09.529Z,16.80
2018-04-28T01:06:52.285Z,16.80
2018-04-28T01:09:24.279Z,16.70
2018-04-28T01:11:55.410Z,16.70
2018-04-28T01:14:44.618Z,16.70
2018-04-28T01:17:19.509Z,16.60
2018-04-28T01:19:59.561Z,16.70
2018-04-28T01:22:41.550Z,16.60
2018-04-28T01:25:11.962Z,16.60
2018-04-28T01:27:44.905Z,16.60
2018-04-28T01:33:59.160Z,16.60
2018-04-28T01:36:31.982Z,16.50
2018-04-28T01:39:18.681Z,16.50
2018-04-28T01:45:16.878Z,16.60
2018-04-28T01:48:01.841Z,16.50
2018-04-28T01:50:36.856Z,16.40
2018-04-28T01:53:07.481Z,16.40
2018-04-28T01:58:40.124Z,16.40
2018-04-28T02:01:18.408Z,16.40
2018-04-28T02:06:59.670Z,16.40
2018-04-28T02:09:30.382Z,16.30
2018-04-28T02:15:31.430Z,16.30
2018-04-28T02:18:15.002Z,16.20
2018-04-28T02:24:28.198Z,16.10
2018-04-28T02:27:01.466Z,16.10
2018-04-28T02:29:35.745Z,16.10
2018-04-28T02:32:22.205Z,16.10
2018-04-28T02:34:59.858Z,16.00
2018-04-28T02:44:06.683Z,15.90
2018-04-28T02:46:47.789Z,15.90
2018-04-28T02:49:20.819Z,15.90
2018-04-28T02:55:05.293Z,15.80
2018-04-28T03:00:55.091Z,15.70
2018-04-28T03:03:59.845Z,15.70
2018-04-28T03:09:46.145Z,15.60
2018-04-28T03:12:17.422Z,15.60
2018-04-28T03:14:54.002Z,15.60
2018-04-28T03:17:37.454Z,15.50
2018-04-28T03:20:18.964Z,15.50
2018-04-28T03:22:50.958Z,15.50
2018-04-28T03:25:24.773Z,15.50
2018-04-28T03:31:20.065Z,15.50
2018-04-28T03:34:01.130Z,15.50
2018-04-28T03:36:36.146Z,15.50
2018-04-28T03:42:14.166Z,15.60
2018-04-28T03:44:49.634Z,15.60
2018-04-28T03:50:31.386Z,15.70
2018-04-28T03:56:14.016Z,15.80
2018-04-28T03:59:02.437Z,15.90
2018-04-28T04:01:50.355Z,15.90
2018-04-28T04:04:32.610Z,15.90
2018-04-28T04:07:13.062Z,15.90
2018-04-28T04:13:07.546Z,16.00
2018-04-28T04:16:03.031Z,16.00
2018-04-28T04:35:53.905Z,16.00
2018-04-28T04:38:24.653Z,16.00
2018-04-28T04:41:06.597Z,16.00
2018-04-28T04:43:45.210Z,16.00
2018-04-28T04:46:27.976Z,15.90
2018-04-28T04:49:11.590Z,15.90
2018-04-28T04:51:49.269Z,15.90
2018-04-28T04:54:32.959Z,15.90
2018-04-28T05:00:32.253Z,16.00
2018-04-28T05:06:25.472Z,16.00
2018-04-28T05:12:28.337Z,16.10
2018-04-28T05:15:16.177Z,16.10
2018-04-28T05:21:08.201Z,16.10
2018-04-28T05:37:45.523Z,16.30
2018-04-28T05:43:50.769Z,16.30
2018-04-28T05:46:41.145Z,16.30
2018-04-28T06:13:59.390Z,16.80
2018-04-28T06:20:02.601Z,16.90
2018-04-28T06:22:33.427Z,16.90
2018-04-28T06:25:04.147Z,17.00
2018-04-28T06:27:34.985Z,17.00
2018-04-28T06:30:06.169Z,17.00
2018-04-28T06:32:36.265Z,17.00
2018-04-28T06:35:07.327Z,17.00
2018-04-28T06:37:37.422Z,17.10
2018-04-28T06:40:08.230Z,17.10
2018-04-28T06:42:38.310Z,17.00
2018-04-28T06:45:09.397Z,17.10
2018-04-28T06:47:39.752Z,17.10
2018-04-28T06:50:10.619Z,17.20
2018-04-28T06:52:41.680Z,17.10
2018-04-28T06:55:11.910Z,17.20
2018-04-28T06:57:42.138Z,17.20
2018-04-28T07:00:12.235Z,17.30
2018-04-28T07:02:43.175Z,17.40
2018-04-28T07:05:13.594Z,17.40
2018-04-28T07:07:43.678Z,17.40
2018-04-28T07:10:14.870Z,17.50
2018-04-28T07:12:44.959Z,17.50
2018-04-28T07:15:16.255Z,17.70
2018-04-28T07:17:46.305Z,17.60
2018-04-28T07:20:16.518Z,17.70
2018-04-28T07:22:47.006Z,17.80
2018-04-28T07:25:17.443Z,17.80
2018-04-28T07:27:47.486Z,17.90
2018-04-28T07:30:17.915Z,17.90
2018-04-28T07:32:47.943Z,18.00
2018-04-28T07:35:18.255Z,18.00
2018-04-28T07:37:48.798Z,18.00
2018-04-28T07:40:19.029Z,18.00
2018-04-28T07:42:49.544Z,18.00
2018-04-28T07:45:19.839Z,18.00
2018-04-28T07:47:50.270Z,18.00
2018-04-28T07:50:20.340Z,18.00
2018-04-28T07:52:52.198Z,18.00
2018-04-28T07:55:24.089Z,18.00
2018-04-28T07:57:55.319Z,17.90
2018-04-28T08:00:26.137Z,18.00
2018-04-28T08:02:56.429Z,18.00
2018-04-28T08:05:26.499Z,18.00
2018-04-28T08:07:57.373Z,18.20
2018-04-28T08:10:27.785Z,18.10
2018-04-28T08:13:00.995Z,18.20
2018-04-28T08:15:31.194Z,18.20
2018-04-28T08:18:01.530Z,18.20
2018-04-28T08:20:31.770Z,18.20
2018-04-28T08:23:02.005Z,18.20
2018-04-28T08:25:32.227Z,18.20
2018-04-28T08:28:02.129Z,18.20
2018-04-28T08:30:33.349Z,18.30
2018-04-28T08:33:03.640Z,18.30
2018-04-28T08:35:33.694Z,18.30
2018-04-28T08:38:03.906Z,18.30
2018-04-28T08:40:33.982Z,18.30
2018-04-28T08:43:04.407Z,18.40
2018-04-28T08:45:35.165Z,18.40
2018-04-28T08:48:06.180Z,18.50
2018-04-28T08:50:37.753Z,18.60
2018-04-28T08:53:07.858Z,18.50
2018-04-28T08:55:37.923Z,18.60
2018-04-28T08:58:08.736Z,18.70
2018-04-28T09:00:49.004Z,18.70
2018-04-28T09:03:20.307Z,18.80
2018-04-28T09:05:52.291Z,18.90
2018-04-28T09:08:23.694Z,18.90
2018-04-28T09:10:55.804Z,19.10
2018-04-28T09:13:27.176Z,19.10
2018-04-28T09:15:58.553Z,19.20
2018-04-28T09:18:29.941Z,19.30
2018-04-28T09:21:01.390Z,19.30
2018-04-28T09:23:32.865Z,19.30
2018-04-28T09:26:04.333Z,19.40
2018-04-28T09:28:35.898Z,19.40
2018-04-28T09:31:07.760Z,19.40
2018-04-28T09:33:39.336Z,19.40
2018-04-28T09:36:10.712Z,19.40
2018-04-28T09:38:42.853Z,19.50
2018-04-28T09:41:15.075Z,19.60
2018-04-28T09:43:47.691Z,19.60
2018-04-28T09:46:19.367Z,19.60
2018-04-28T09:48:50.876Z,19.40
2018-04-28T09:51:22.235Z,19.80
2018-04-28T09:53:53.943Z,19.90
2018-04-28T09:56:25.295Z,20.00
2018-04-28T09:58:57.045Z,20.00
2018-04-28T10:01:29.110Z,20.10
2018-04-28T10:04:01.038Z,20.10
2018-04-28T10:06:32.753Z,20.10
2018-04-28T10:09:03.801Z,20.10
2018-04-28T10:11:35.183Z,20.20
2018-04-28T10:14:05.925Z,20.30
2018-04-28T10:16:37.607Z,20.30
2018-04-28T10:19:10.123Z,20.60
2018-04-28T10:21:41.881Z,20.60
2018-04-28T10:24:14.051Z,20.90
2018-04-28T10:26:45.697Z,20.90
2018-04-28T10:29:17.275Z,21.00
2018-04-28T10:31:48.715Z,21.10
2018-04-28T10:34:21.550Z,21.40
2018-04-28T10:36:52.955Z,21.30
2018-04-28T10:39:25.214Z,21.40
2018-04-28T10:41:56.638Z,21.50
2018-04-28T10:44:28.019Z,21.60
2018-04-28T10:46:59.621Z,21.70
2018-04-28T10:49:31.743Z,21.80
2018-04-28T10:52:03.165Z,21.70
2018-04-28T10:54:34.554Z,21.80
2018-04-28T10:57:05.916Z,21.80
2018-04-28T10:59:38.087Z,21.90
2018-04-28T11:02:10.320Z,21.90
2018-04-28T11:04:43.170Z,21.80
2018-04-28T11:07:14.668Z,21.90
2018-04-28T11:09:46.383Z,21.90
2018-04-28T11:12:18.607Z,22.20
2018-04-28T11:14:50.122Z,22.20
2018-04-28T11:17:21.862Z,22.40
2018-04-28T11:19:53.420Z,22.70
2018-04-28T11:22:24.958Z,23.00
2018-04-28T11:24:56.364Z,23.30
2018-04-28T11:27:27.765Z,23.60
2018-04-28T11:29:59.154Z,23.80
2018-04-28T11:32:31.256Z,24.20
2018-04-28T11:35:02.682Z,24.10
2018-04-28T11:37:34.781Z,24.80
2018-04-28T11:40:06.247Z,24.80
2018-04-28T11:42:37.593Z,25.20
2018-04-28T11:45:09.274Z,25.50
2018-04-28T11:47:40.654Z,25.60
2018-04-28T11:50:12.990Z,25.60
2018-04-28T11:52:44.449Z,25.60
2018-04-28T11:55:15.796Z,25.60
2018-04-28T11:57:47.965Z,25.60
2018-04-28T12:00:19.488Z,25.50
2018-04-28T12:02:51.002Z,25.50
2018-04-28T12:05:23.127Z,25.60
2018-04-28T12:07:54.631Z,25.60
2018-04-28T12:10:25.991Z,25.60
2018-04-28T12:12:57.481Z,25.60
2018-04-28T12:15:28.980Z,25.60
2018-04-28T12:18:00.442Z,25.70
2018-04-28T12:20:32.589Z,25.50
2018-04-28T12:23:04.426Z,25.40
2018-04-28T12:25:37.445Z,25.20
2018-04-28T12:28:09.303Z,25.30
2018-04-28T12:30:40.700Z,25.10
2018-04-28T12:33:12.078Z,24.90
2018-04-28T12:35:43.453Z,24.80
2018-04-28T12:38:15.052Z,24.60
2018-04-28T12:40:46.434Z,24.40
2018-04-28T12:43:18.966Z,24.10
2018-04-28T12:45:50.336Z,24.10
2018-04-28T12:48:21.714Z,24.20
2018-04-28T12:50:53.129Z,24.20
2018-04-28T12:53:25.818Z,24.20
2018-04-28T12:55:57.204Z,24.10
2018-04-28T12:58:30.141Z,23.90
2018-04-28T13:01:06.596Z,23.90
2018-04-28T13:03:37.953Z,23.90
2018-04-28T13:06:09.439Z,23.90
2018-04-28T13:08:42.050Z,23.90
2018-04-28T13:11:13.887Z,23.80
2018-04-28T13:13:46.066Z,23.80
2018-04-28T13:16:17.478Z,23.70
2018-04-28T13:18:49.294Z,23.70
2018-04-28T13:21:21.449Z,23.70
2018-04-28T13:23:53.110Z,23.70
2018-04-28T13:26:25.243Z,23.70
2018-04-28T13:28:56.666Z,23.70
2018-04-28T13:31:28.008Z,23.70
2018-04-28T13:34:00.467Z,23.60
2018-04-28T13:36:32.671Z,23.50
2018-04-28T13:39:03.472Z,23.50
2018-04-28T13:41:35.050Z,23.40
2018-04-28T13:44:06.433Z,23.40
2018-04-28T13:46:38.122Z,23.40
2018-04-28T13:49:10.231Z,23.20
2018-04-28T13:51:41.758Z,23.20
2018-04-28T13:54:14.260Z,23.00
2018-04-28T13:56:46.408Z,23.00
2018-04-28T13:59:17.751Z,22.90
2018-04-28T14:01:49.123Z,22.90
2018-04-28T14:04:20.510Z,22.90
2018-04-28T14:06:51.669Z,22.80
2018-04-28T14:09:23.472Z,22.80
2018-04-28T14:11:55.567Z,22.90
2018-04-28T14:14:27.085Z,22.80
2018-04-28T14:16:58.586Z,22.90
2018-04-28T14:19:30.006Z,23.00
2018-04-28T14:22:01.363Z,23.00
2018-04-28T14:24:32.882Z,23.00
2018-04-28T14:27:04.182Z,23.00
2018-04-28T14:29:35.792Z,22.90
2018-04-28T14:32:07.975Z,22.90
2018-04-28T14:34:40.414Z,22.80
2018-04-28T14:37:12.177Z,22.80
2018-04-28T14:39:43.518Z,22.80
2018-04-28T14:42:14.909Z,22.70
2018-04-28T14:44:46.289Z,22.70
2018-04-28T14:47:17.942Z,22.70
2018-04-28T14:49:49.417Z,22.70
2018-04-28T14:52:21.018Z,22.80
2018-04-28T14:54:53.164Z,22.80
2018-04-28T14:57:25.284Z,22.80
2018-04-28T14:59:56.462Z,22.80
2018-04-28T15:02:27.799Z,22.90
2018-04-28T15:04:59.194Z,22.80
2018-04-28T15:07:31.592Z,22.80
2018-04-28T15:10:03.702Z,22.70
2018-04-28T15:12:35.156Z,22.70
2018-04-28T15:15:07.320Z,22.60
2018-04-28T15:17:38.723Z,22.60
2018-04-28T15:20:10.886Z,22.40
2018-04-28T15:22:43.096Z,22.40
2018-04-28T15:25:14.500Z,22.40
2018-04-28T15:27:46.001Z,22.30
2018-04-28T15:30:17.531Z,22.30
2018-04-28T15:32:49.741Z,22.30
2018-04-28T15:35:21.137Z,22.30
2018-04-28T15:37:52.288Z,22.30
2018-04-28T15:40:24.404Z,22.30
2018-04-28T15:42:55.994Z,22.30
2018-04-28T15:45:27.337Z,22.30
2018-04-28T15:47:59.641Z,22.30
2018-04-28T15:50:31.058Z,22.20
2018-04-28T15:53:02.393Z,22.30
2018-04-28T15:55:33.790Z,22.30
2018-04-28T15:58:05.134Z,22.30
2018-04-28T16:00:37.386Z,22.20
2018-04-28T16:03:09.169Z,22.20
2018-04-28T16:05:40.549Z,22.20
2018-04-28T16:08:11.946Z,22.20
2018-04-28T16:10:43.380Z,22.20
2018-04-28T16:13:14.789Z,22.40
2018-04-28T16:15:46.281Z,22.10
2018-04-28T16:18:17.628Z,22.10
2018-04-28T16:20:49.060Z,22.00
2018-04-28T16:23:20.471Z,21.90
2018-04-28T16:25:52.668Z,21.80
2018-04-28T16:28:24.161Z,21.80
2018-04-28T16:30:55.502Z,21.80
2018-04-28T16:33:26.909Z,21.70
2018-04-28T16:35:58.512Z,21.60
2018-04-28T16:38:29.862Z,21.60
2018-04-28T16:41:01.266Z,21.50
2018-04-28T16:43:32.696Z,21.50
2018-04-28T16:46:04.181Z,21.50
2018-04-28T16:48:35.615Z,21.40
2018-04-28T16:51:07.751Z,21.30
2018-04-28T16:53:39.108Z,21.30
2018-04-28T16:56:11.214Z,21.20
2018-04-28T16:58:42.374Z,21.20
2018-04-28T17:01:14.096Z,21.20
2018-04-28T17:03:45.665Z,21.20
2018-04-28T17:06:17.251Z,21.10
2018-04-28T17:08:49.065Z,21.10
2018-04-28T17:11:20.629Z,21.00
2018-04-28T17:13:52.898Z,21.00
2018-04-28T17:16:24.307Z,21.00
2018-04-28T17:18:55.983Z,20.90
2018-04-28T17:21:27.631Z,20.90
2018-04-28T17:23:59.238Z,20.90
2018-04-28T17:26:30.920Z,20.80
2018-04-28T17:29:02.465Z,20.80
2018-04-28T17:31:34.049Z,20.80
2018-04-28T17:34:05.429Z,20.80
2018-04-28T17:36:36.811Z,20.80
2018-04-28T17:39:07.526Z,20.70
2018-04-28T17:41:39.653Z,20.70
2018-04-28T17:44:11.860Z,20.60
2018-04-28T17:46:43.227Z,20.60
2018-04-28T17:49:14.601Z,20.60
2018-04-28T17:51:46.155Z,20.60
2018-04-28T17:54:17.713Z,20.60
2018-04-28T17:56:49.095Z,20.50
2018-04-28T17:59:21.256Z,20.50
2018-04-28T18:01:52.770Z,20.40
2018-04-28T18:04:24.160Z,20.50
2018-04-28T18:06:56.513Z,20.40
2018-04-28T18:09:27.952Z,20.40
2018-04-28T18:11:59.780Z,20.40
2018-04-28T18:14:31.437Z,20.40
2018-04-28T18:17:02.837Z,20.30
2018-04-28T18:19:34.221Z,20.30
2018-04-28T18:22:06.361Z,20.20
2018-04-28T18:24:37.741Z,20.20
2018-04-28T18:27:09.919Z,20.10
2018-04-28T18:29:41.272Z,20.10
2018-04-28T18:32:12.626Z,20.00
2018-04-28T18:34:43.968Z,20.00
2018-04-28T18:37:16.346Z,20.00
2018-04-28T18:39:47.703Z,19.90
2018-04-28T18:42:20.404Z,19.90
2018-04-28T18:44:51.888Z,19.80
2018-04-28T18:47:24.032Z,19.80
2018-04-28T18:49:55.755Z,19.80
2018-04-28T18:52:27.426Z,19.80
2018-04-28T18:54:58.867Z,19.70
2018-04-28T18:57:30.983Z,19.60
2018-04-28T19:00:02.428Z,19.60
2018-04-28T19:02:33.767Z,19.60
2018-04-28T19:05:05.043Z,19.60
2018-04-28T19:07:37.319Z,19.50
2018-04-28T19:10:08.663Z,19.50
2018-04-28T19:12:40.109Z,19.50
2018-04-28T19:15:11.512Z,19.50
2018-04-28T19:17:42.897Z,19.40
2018-04-28T19:20:13.939Z,19.40
2018-04-28T19:22:45.338Z,19.30
2018-04-28T19:25:16.946Z,19.30
2018-04-28T19:27:48.313Z,19.20
2018-04-28T19:30:19.750Z,19.20
2018-04-28T19:32:51.300Z,19.20
2018-04-28T19:35:23.500Z,19.10
2018-04-28T19:37:54.843Z,19.10
2018-04-28T19:40:26.251Z,19.10
2018-04-28T19:42:57.660Z,19.00
2018-04-28T19:45:29.529Z,19.00
2018-04-28T19:48:01.108Z,19.00
2018-04-28T19:50:32.699Z,19.00
2018-04-28T19:53:04.365Z,19.00
2018-04-28T19:55:35.736Z,18.90
2018-04-28T19:58:07.138Z,18.80
2018-04-28T20:00:38.499Z,18.80
2018-04-28T20:03:09.726Z,18.80
2018-04-28T20:05:41.134Z,18.80
2018-04-28T20:08:12.498Z,18.80
2018-04-28T20:10:43.930Z,18.80
2018-04-28T20:13:15.333Z,18.80
2018-04-28T20:15:46.717Z,18.80
2018-04-28T20:18:18.136Z,18.80
2018-04-28T20:20:49.555Z,18.80
2018-04-28T20:23:37.678Z,18.80
2018-04-28T20:26:09.157Z,18.80
2018-04-28T20:28:41.315Z,18.70
2018-04-28T20:31:12.740Z,18.70
2018-04-28T20:33:43.942Z,18.70
2018-04-28T20:36:15.330Z,18.70
2018-04-28T20:38:46.861Z,18.70
2018-04-28T20:41:18.854Z,18.70
2018-04-28T20:43:50.315Z,18.70
2018-04-28T20:46:21.677Z,18.60
2018-04-28T20:48:53.051Z,18.60
2018-04-28T20:51:25.234Z,18.50
2018-04-28T20:53:56.604Z,18.50
2018-04-28T20:56:28.194Z,18.50
2018-04-28T20:58:59.882Z,18.50
2018-04-28T21:01:31.011Z,18.50
2018-04-28T21:04:02.410Z,18.50
2018-04-28T21:06:33.802Z,18.50
2018-04-28T21:09:04.605Z,18.50
2018-04-28T21:11:35.636Z,18.50
2018-04-28T21:14:07.014Z,18.50
2018-04-28T21:16:38.520Z,18.50
2018-04-28T21:19:10.866Z,18.50
2018-04-28T21:21:42.986Z,18.50
2018-04-28T21:24:14.358Z,18.50
2018-04-28T21:26:45.711Z,18.50
2018-04-28T21:29:17.120Z,18.50
2018-04-28T21:31:49.235Z,18.40
2018-04-28T21:34:20.882Z,18.40
2018-04-28T21:36:52.263Z,18.40
2018-04-28T21:39:23.667Z,18.40
2018-04-28T21:41:55.079Z,18.40
2018-04-28T21:44:26.698Z,18.40
2018-04-28T21:46:58.068Z,18.30
2018-04-28T21:49:30.215Z,18.30
2018-04-28T21:52:01.733Z,18.30
2018-04-28T21:54:34.179Z,18.20
2018-04-28T21:57:05.534Z,18.20
2018-04-28T21:59:37.254Z,18.20
2018-04-28T22:02:08.735Z,18.10
2018-04-28T22:04:40.113Z,18.20
2018-04-28T22:07:12.322Z,18.00
2018-04-28T22:09:43.803Z,18.00
2018-04-28T22:12:15.204Z,18.00
2018-04-28T22:14:46.587Z,18.00
2018-04-28T22:17:18.402Z,17.90
2018-04-28T22:19:49.820Z,18.40
2018-04-28T22:22:21.302Z,17.90
2018-04-28T22:24:52.757Z,17.90
2018-04-28T22:27:24.912Z,17.90
2018-04-28T22:29:56.290Z,17.80
2018-04-28T22:32:27.655Z,17.80
2018-04-28T22:34:59.002Z,17.80
2018-04-28T22:37:30.519Z,17.80
2018-04-28T22:40:02.659Z,17.80
2018-04-28T22:42:34.303Z,17.80
2018-04-28T22:45:05.342Z,17.80
2018-04-28T22:47:36.820Z,17.70
2018-04-28T22:50:08.161Z,17.70
2018-04-28T22:52:41.135Z,17.70
2018-04-28T22:55:12.528Z,17.70
2018-04-28T22:57:44.633Z,17.70
2018-04-28T23:00:15.088Z,17.70
2018-04-28T23:02:46.037Z,17.70
2018-04-28T23:05:19.470Z,17.60
2018-04-28T23:07:50.859Z,17.60
2018-04-28T23:10:22.213Z,17.60
2018-04-28T23:12:53.572Z,17.60
2018-04-28T23:15:24.937Z,17.50
2018-04-28T23:17:56.855Z,17.50
2018-04-28T23:20:28.269Z,17.50
2018-04-28T23:23:00.005Z,17.40
2018-04-28T23:25:31.406Z,17.40
2018-04-28T23:28:02.733Z,17.40
2018-04-28T23:30:34.186Z,17.30
2018-04-28T23:33:06.360Z,17.20
2018-04-28T23:35:38.494Z,17.10
2018-04-28T23:38:09.835Z,17.10
2018-04-28T23:40:41.517Z,17.10
2018-04-28T23:43:13.032Z,17.00
2018-04-28T23:45:44.501Z,17.00
2018-04-28T23:48:15.978Z,16.90
2018-04-28T23:50:48.241Z,16.80
2018-04-28T23:53:20.171Z,16.70
2018-04-28T23:55:51.552Z,16.70
2018-04-28T23:58:22.916Z,16.70
